createdAt,value
2017-11-04T00:00:33.570Z,2.00
2017-11-04T00:01:33.446Z,2.00
2017-11-04T00:02:33.322Z,1.80
2017-11-04T00:03:33.197Z,1.90
2017-11-04T00:04:33.076Z,2.10
2017-11-04T00:05:32.949Z,1.70
2017-11-04T00:06:32.827Z,2.00
2017-11-04T00:07:32.702Z,2.00
2017-11-04T00:08:32.577Z,2.10
2017-11-04T00:09:32.452Z,1.90
2017-11-04T00:10:32.330Z,2.10
2017-11-04T00:11:32.204Z,2.00
2017-11-04T00:12:32.085Z,1.90
2017-11-04T00:13:31.960Z,1.90
2017-11-04T00:14:31.835Z,2.10
2017-11-04T00:15:31.708Z,2.00
2017-11-04T00:16:31.585Z,2.00
2017-11-04T00:17:31.461Z,2.10
2017-11-04T00:18:31.335Z,1.80
2017-11-04T00:19:31.213Z,2.10
2017-11-04T00:20:31.089Z,2.00
2017-11-04T00:21:30.964Z,2.10
2017-11-04T00:22:30.841Z,2.10
2017-11-04T00:23:30.715Z,2.10
2017-11-04T00:24:30.592Z,1.80
2017-11-04T00:25:30.470Z,1.80
2017-11-04T00:26:30.345Z,2.00
2017-11-04T00:27:30.219Z,2.10
2017-11-04T00:28:30.097Z,2.00
2017-11-04T00:29:29.973Z,2.00
2017-11-04T00:30:29.850Z,2.00
2017-11-04T00:31:29.726Z,2.00
2017-11-04T00:32:29.602Z,2.00
2017-11-04T00:33:29.476Z,2.10
2017-11-04T00:34:29.352Z,1.80
2017-11-04T00:35:29.227Z,2.00
2017-11-04T00:36:29.105Z,2.00
2017-11-04T00:37:28.979Z,2.00
2017-11-04T00:38:28.855Z,2.00
2017-11-04T00:39:28.732Z,2.00
2017-11-04T00:40:28.608Z,2.10
2017-11-04T00:41:28.489Z,1.90
2017-11-04T00:42:28.358Z,1.80
2017-11-04T00:43:28.235Z,2.00
2017-11-04T00:44:28.111Z,2.10
2017-11-04T00:45:27.987Z,1.70
2017-11-04T00:46:27.866Z,1.70
2017-11-04T00:47:27.737Z,2.10
2017-11-04T00:48:27.614Z,1.90
2017-11-04T00:49:27.490Z,1.90
2017-11-04T00:50:27.368Z,2.00
2017-11-04T00:51:27.242Z,2.00
2017-11-04T00:52:27.117Z,1.80
2017-11-04T00:53:26.994Z,2.10
2017-11-04T00:54:26.870Z,2.00
2017-11-04T00:55:26.746Z,2.10
2017-11-04T00:56:26.620Z,1.80
2017-11-04T00:57:26.497Z,1.90
2017-11-04T00:58:26.373Z,2.00
2017-11-04T00:59:26.255Z,1.70
2017-11-04T01:00:26.124Z,2.00
2017-11-04T01:01:26.000Z,1.90
2017-11-04T01:02:25.877Z,2.00
2017-11-04T01:03:25.749Z,1.80
2017-11-04T01:04:25.629Z,1.90
2017-11-04T01:05:25.504Z,1.70
2017-11-04T01:06:25.380Z,1.90
2017-11-04T01:07:25.256Z,2.00
2017-11-04T01:08:25.130Z,1.90
2017-11-04T01:09:25.007Z,2.20
2017-11-04T01:10:24.884Z,2.10
2017-11-04T01:11:24.758Z,1.90
2017-11-04T01:12:24.632Z,2.00
2017-11-04T01:13:24.510Z,1.80
2017-11-04T01:14:24.390Z,2.00
2017-11-04T01:15:24.263Z,2.10
2017-11-04T01:16:24.138Z,2.00
2017-11-04T01:17:24.015Z,2.00
2017-11-04T01:18:23.890Z,1.90
2017-11-04T01:19:23.766Z,1.80
2017-11-04T01:20:23.641Z,1.90
2017-11-04T01:21:23.517Z,2.00
2017-11-04T01:22:23.393Z,1.90
2017-11-04T01:23:23.271Z,2.00
2017-11-04T01:24:23.145Z,2.00
2017-11-04T01:25:23.020Z,1.90
2017-11-04T01:26:22.898Z,1.80
2017-11-04T01:27:22.773Z,2.00
2017-11-04T01:28:22.654Z,1.90
2017-11-04T01:29:22.526Z,1.80
2017-11-04T01:30:22.402Z,2.00
2017-11-04T01:31:22.280Z,1.90
2017-11-04T01:32:22.152Z,2.00
2017-11-04T01:33:22.030Z,1.90
2017-11-04T01:34:21.905Z,2.10
2017-11-04T01:35:21.783Z,1.70
2017-11-04T01:36:21.658Z,1.90
2017-11-04T01:37:21.533Z,1.90
2017-11-04T01:38:21.411Z,2.10
2017-11-04T01:39:21.286Z,2.20
2017-11-04T01:40:21.163Z,1.90
2017-11-04T01:41:21.038Z,2.00
2017-11-04T01:42:20.914Z,2.00
2017-11-04T01:43:20.791Z,2.00
2017-11-04T01:44:20.668Z,1.80
2017-11-04T01:45:20.543Z,2.10
2017-11-04T01:46:20.421Z,1.90
2017-11-04T01:47:20.295Z,2.20
2017-11-04T01:48:20.170Z,2.10
2017-11-04T01:49:20.048Z,2.20
2017-11-04T01:50:19.923Z,2.00
2017-11-04T01:51:19.800Z,2.00
2017-11-04T01:52:19.675Z,2.00
2017-11-04T01:53:19.560Z,2.30
2017-11-04T01:54:19.430Z,2.10
2017-11-04T01:55:19.309Z,2.00
2017-11-04T01:56:19.180Z,2.10
2017-11-04T01:57:19.057Z,2.10
2017-11-04T01:58:18.934Z,2.00
2017-11-04T01:59:18.810Z,2.20
2017-11-04T02:00:18.686Z,2.10
2017-11-04T02:01:18.560Z,2.00
2017-11-04T02:02:18.438Z,2.20
2017-11-04T02:03:18.314Z,2.00
2017-11-04T02:04:18.189Z,2.10
2017-11-04T02:05:18.068Z,2.30
2017-11-04T02:06:17.941Z,2.00
2017-11-04T02:07:17.817Z,2.10
2017-11-04T02:08:17.693Z,2.10
2017-11-04T02:09:17.569Z,2.10
2017-11-04T02:10:17.447Z,1.90
2017-11-04T02:11:17.321Z,2.30
2017-11-04T02:12:17.199Z,1.90
2017-11-04T02:13:17.072Z,2.20
2017-11-04T02:14:16.950Z,2.10
2017-11-04T02:15:16.825Z,2.20
2017-11-04T02:16:16.702Z,2.00
2017-11-04T02:17:16.579Z,2.10
2017-11-04T02:18:16.455Z,2.10
2017-11-04T02:19:16.327Z,2.00
2017-11-04T02:20:16.204Z,2.00
2017-11-04T02:21:16.081Z,2.00
2017-11-04T02:22:15.956Z,2.00
2017-11-04T02:23:15.834Z,2.10
2017-11-04T02:24:15.710Z,1.90
2017-11-04T02:25:15.586Z,1.90
2017-11-04T02:26:15.460Z,1.70
2017-11-04T02:27:15.340Z,2.20
2017-11-04T02:28:15.214Z,1.90
2017-11-04T02:29:15.093Z,2.20
2017-11-04T02:30:14.964Z,2.10
2017-11-04T02:31:14.842Z,2.00
2017-11-04T02:32:14.717Z,2.00
2017-11-04T02:33:14.591Z,2.00
2017-11-04T02:34:14.470Z,2.10
2017-11-04T02:35:14.344Z,2.00
2017-11-04T02:36:14.223Z,2.10
2017-11-04T02:37:14.097Z,1.90
2017-11-04T02:38:13.974Z,2.00
2017-11-04T02:39:13.849Z,2.00
2017-11-04T02:40:13.726Z,1.90
2017-11-04T02:41:13.601Z,2.00
2017-11-04T02:42:13.478Z,2.00
2017-11-04T02:43:13.353Z,1.80
2017-11-04T02:44:13.228Z,1.80
2017-11-04T02:45:13.105Z,1.90
2017-11-04T02:46:12.982Z,2.20
2017-11-04T02:47:12.857Z,1.80
2017-11-04T02:48:12.733Z,2.00
2017-11-04T02:49:12.610Z,2.10
2017-11-04T02:50:12.486Z,2.20
2017-11-04T02:51:12.361Z,1.90
2017-11-04T02:52:12.238Z,1.80
2017-11-04T02:53:12.113Z,1.90
2017-11-04T02:54:11.990Z,2.10
2017-11-04T02:55:11.864Z,2.00
2017-11-04T02:56:11.741Z,1.80
2017-11-04T02:57:11.623Z,2.20
2017-11-04T02:58:11.494Z,2.00
2017-11-04T02:59:11.370Z,1.90
2017-11-04T03:00:11.249Z,2.10
2017-11-04T03:01:11.122Z,2.00
2017-11-04T03:02:10.998Z,1.90
2017-11-04T03:03:10.873Z,1.90
2017-11-04T03:04:10.749Z,2.00
2017-11-04T03:05:10.625Z,2.00
2017-11-04T03:06:10.503Z,2.10
2017-11-04T03:07:10.375Z,2.00
2017-11-04T03:08:10.253Z,1.90
2017-11-04T03:09:10.130Z,2.00
2017-11-04T03:10:10.006Z,2.00
2017-11-04T03:11:09.884Z,1.80
2017-11-04T03:12:09.758Z,1.80
2017-11-04T03:13:09.634Z,1.90
2017-11-04T03:14:09.509Z,1.90
2017-11-04T03:15:09.391Z,1.80
2017-11-04T03:16:09.261Z,1.70
2017-11-04T03:17:09.137Z,2.10
2017-11-04T03:18:09.016Z,2.00
2017-11-04T03:19:08.889Z,2.00
2017-11-04T03:20:08.766Z,2.00
2017-11-04T03:21:08.641Z,1.90
2017-11-04T03:22:08.517Z,2.00
2017-11-04T03:23:08.392Z,2.20
2017-11-04T03:24:08.270Z,1.80
2017-11-04T03:25:08.145Z,2.10
2017-11-04T03:26:08.021Z,1.90
2017-11-04T03:27:07.897Z,2.00
2017-11-04T03:28:07.773Z,1.90
2017-11-04T03:29:07.649Z,2.00
2017-11-04T03:30:07.526Z,1.80
2017-11-04T03:31:07.402Z,2.00
2017-11-04T03:32:07.278Z,2.00
2017-11-04T03:33:07.154Z,1.60
2017-11-04T03:34:07.031Z,2.00
2017-11-04T03:35:06.903Z,1.90
2017-11-04T03:36:06.784Z,1.80
2017-11-04T03:37:06.658Z,1.80
2017-11-04T03:38:06.533Z,1.90
2017-11-04T03:39:06.409Z,1.80
2017-11-04T03:40:06.287Z,1.80
2017-11-04T03:41:06.161Z,2.00
2017-11-04T03:42:06.038Z,2.00
2017-11-04T03:43:05.913Z,2.00
2017-11-04T03:44:05.789Z,2.00
2017-11-04T03:45:05.666Z,1.80
2017-11-04T03:46:05.543Z,1.80
2017-11-04T03:47:05.418Z,1.90
2017-11-04T03:48:05.293Z,1.80
2017-11-04T03:49:05.170Z,2.00
2017-11-04T03:50:05.053Z,1.80
2017-11-04T03:51:04.920Z,1.80
2017-11-04T03:52:04.798Z,2.10
2017-11-04T03:53:04.673Z,1.80
2017-11-04T03:54:04.550Z,1.60
2017-11-04T03:55:04.428Z,2.00
2017-11-04T03:56:04.302Z,2.30
2017-11-04T03:57:04.177Z,1.80
2017-11-04T03:58:04.054Z,1.90
2017-11-04T03:59:03.930Z,1.80
2017-11-04T04:00:03.807Z,1.90
2017-11-04T04:01:03.682Z,1.90
2017-11-04T04:02:03.562Z,1.90
2017-11-04T04:03:03.434Z,2.00
2017-11-04T04:04:03.310Z,1.90
2017-11-04T04:05:03.189Z,2.00
2017-11-04T04:06:03.065Z,2.10
2017-11-04T04:07:02.940Z,2.00
2017-11-04T04:08:02.814Z,2.10
2017-11-04T04:09:02.694Z,1.80
2017-11-04T04:10:02.567Z,2.10
2017-11-04T04:11:02.464Z,1.80
2017-11-04T04:12:02.320Z,1.80
2017-11-04T04:13:02.195Z,1.80
2017-11-04T04:14:02.076Z,1.80
2017-11-04T04:15:01.950Z,1.70
2017-11-04T04:16:01.826Z,2.10
2017-11-04T04:17:01.709Z,1.80
2017-11-04T04:18:01.581Z,1.90
2017-11-04T04:19:01.451Z,1.90
2017-11-04T04:20:01.332Z,1.80
2017-11-04T04:21:01.206Z,2.00
2017-11-04T04:22:01.081Z,1.80
2017-11-04T04:23:00.957Z,2.00
2017-11-04T04:24:00.833Z,1.70
2017-11-04T04:25:00.709Z,1.90
2017-11-04T04:26:00.588Z,1.80
2017-11-04T04:27:00.463Z,1.70
2017-11-04T04:28:00.337Z,2.00
2017-11-04T04:29:00.221Z,2.00
2017-11-04T04:30:00.096Z,1.90
2017-11-04T04:30:59.963Z,1.80
2017-11-04T04:31:59.841Z,1.70
2017-11-04T04:32:59.718Z,1.80
2017-11-04T04:33:59.596Z,1.80
2017-11-04T04:34:59.468Z,2.00
2017-11-04T04:35:59.344Z,1.80
2017-11-04T04:36:59.222Z,1.60
2017-11-04T04:37:59.101Z,1.80
2017-11-04T04:38:58.974Z,1.90
2017-11-04T04:39:58.849Z,1.70
2017-11-04T04:40:58.728Z,1.80
2017-11-04T04:41:58.600Z,1.90
2017-11-04T04:42:58.476Z,1.90
2017-11-04T04:43:58.354Z,1.80
2017-11-04T04:44:58.229Z,1.70
2017-11-04T04:45:58.105Z,2.10
2017-11-04T04:46:57.981Z,2.00
2017-11-04T04:47:57.856Z,1.80
2017-11-04T04:48:57.738Z,1.90
2017-11-04T04:49:57.610Z,1.70
2017-11-04T04:50:57.485Z,1.90
2017-11-04T04:51:57.361Z,1.80
2017-11-04T04:52:57.236Z,1.90
2017-11-04T04:53:57.115Z,1.70
2017-11-04T04:54:56.989Z,1.80
2017-11-04T04:55:56.865Z,2.10
2017-11-04T04:56:56.741Z,1.60
2017-11-04T04:57:56.619Z,1.70
2017-11-04T04:58:56.491Z,1.70
2017-11-04T04:59:56.370Z,1.60
2017-11-04T05:00:56.245Z,1.80
2017-11-04T05:01:56.121Z,2.00
2017-11-04T05:02:55.996Z,1.90
2017-11-04T05:03:55.873Z,1.90
2017-11-04T05:04:55.749Z,1.70
2017-11-04T05:05:55.625Z,1.80
2017-11-04T05:06:55.505Z,1.80
2017-11-04T05:07:55.376Z,1.70
2017-11-04T05:08:55.252Z,1.90
2017-11-04T05:09:55.141Z,1.90
2017-11-04T05:10:55.005Z,1.70
2017-11-04T05:11:54.888Z,2.00
2017-11-04T05:12:54.754Z,1.70
2017-11-04T05:13:54.632Z,1.90
2017-11-04T05:14:54.507Z,1.80
2017-11-04T05:15:54.383Z,1.80
2017-11-04T05:16:54.258Z,1.80
2017-11-04T05:17:54.133Z,2.00
2017-11-04T05:18:54.010Z,1.80
2017-11-04T05:19:53.885Z,1.90
2017-11-04T05:20:53.762Z,1.80
2017-11-04T05:21:53.637Z,1.80
2017-11-04T05:22:53.514Z,1.80
2017-11-04T05:23:53.389Z,1.90
2017-11-04T05:24:53.266Z,1.80
2017-11-04T05:25:53.141Z,1.90
2017-11-04T05:26:53.015Z,1.90
2017-11-04T05:27:52.892Z,1.80
2017-11-04T05:28:52.767Z,1.70
2017-11-04T05:29:52.645Z,1.90
2017-11-04T05:30:52.520Z,1.80
2017-11-04T05:31:52.394Z,1.80
2017-11-04T05:32:52.276Z,1.80
2017-11-04T05:33:52.151Z,1.80
2017-11-04T05:34:52.022Z,1.80
2017-11-04T05:35:51.896Z,1.70
2017-11-04T05:36:51.775Z,1.80
2017-11-04T05:37:51.649Z,1.70
2017-11-04T05:38:51.523Z,1.70
2017-11-04T05:39:51.416Z,1.80
2017-11-04T05:40:51.277Z,1.60
2017-11-04T05:41:51.152Z,1.90
2017-11-04T05:42:51.026Z,1.90
2017-11-04T05:43:50.904Z,1.90
2017-11-04T05:44:50.780Z,1.80
2017-11-04T05:45:50.658Z,1.70
2017-11-04T05:46:50.530Z,2.20
2017-11-04T05:47:50.407Z,1.80
2017-11-04T05:48:50.283Z,2.00
2017-11-04T05:49:50.159Z,1.90
2017-11-04T05:50:50.035Z,1.80
2017-11-04T05:51:49.910Z,1.70
2017-11-04T05:52:49.789Z,1.80
2017-11-04T05:53:49.660Z,1.80
2017-11-04T05:54:49.538Z,1.70
2017-11-04T05:55:49.414Z,1.80
2017-11-04T05:56:49.290Z,2.00
2017-11-04T05:57:49.168Z,1.80
2017-11-04T05:58:49.040Z,1.80
2017-11-04T05:59:48.960Z,1.60
2017-11-04T06:00:48.798Z,1.80
2017-11-04T06:01:48.671Z,1.80
2017-11-04T06:02:48.545Z,1.90
2017-11-04T06:03:48.421Z,1.90
2017-11-04T06:04:48.299Z,1.70
2017-11-04T06:05:48.173Z,1.70
2017-11-04T06:06:48.048Z,1.90
2017-11-04T06:07:47.926Z,1.80
2017-11-04T06:08:47.802Z,1.80
2017-11-04T06:09:47.677Z,1.80
2017-11-04T06:10:47.553Z,1.80
2017-11-04T06:11:47.428Z,1.80
2017-11-04T06:12:47.305Z,1.90
2017-11-04T06:13:47.180Z,1.60
2017-11-04T06:14:47.058Z,1.70
2017-11-04T06:15:46.931Z,1.80
2017-11-04T06:16:46.815Z,1.80
2017-11-04T06:17:46.683Z,1.70
2017-11-04T06:18:46.556Z,1.80
2017-11-04T06:19:46.434Z,2.10
2017-11-04T06:20:46.310Z,1.70
2017-11-04T06:21:46.188Z,1.90
2017-11-04T06:22:46.062Z,1.90
2017-11-04T06:23:45.942Z,1.70
2017-11-04T06:24:45.814Z,1.80
2017-11-04T06:25:45.690Z,1.80
2017-11-04T06:26:45.564Z,1.60
2017-11-04T06:27:45.441Z,1.80
2017-11-04T06:28:45.315Z,1.70
2017-11-04T06:29:45.194Z,1.70
2017-11-04T06:30:45.068Z,1.70
2017-11-04T06:31:44.943Z,1.80
2017-11-04T06:32:44.820Z,1.60
2017-11-04T06:33:44.695Z,1.80
2017-11-04T06:34:44.573Z,1.80
2017-11-04T06:35:44.449Z,1.70
2017-11-04T06:36:44.330Z,1.70
2017-11-04T06:37:44.248Z,1.80
2017-11-04T06:38:44.176Z,1.80
2017-11-04T06:39:43.952Z,1.80
2017-11-04T06:40:43.889Z,1.90
2017-11-04T06:41:43.703Z,1.80
2017-11-04T06:42:43.578Z,1.90
2017-11-04T06:43:43.455Z,1.80
2017-11-04T06:44:43.337Z,1.60
2017-11-04T06:45:43.207Z,1.70
2017-11-04T06:46:43.082Z,1.70
2017-11-04T06:47:42.967Z,1.70
2017-11-04T06:48:42.835Z,1.70
2017-11-04T06:49:42.712Z,1.80
2017-11-04T06:50:42.586Z,1.70
2017-11-04T06:51:42.461Z,1.70
2017-11-04T06:52:42.341Z,1.70
2017-11-04T06:53:42.215Z,2.00
2017-11-04T06:54:42.096Z,1.60
2017-11-04T06:55:41.969Z,1.70
2017-11-04T06:56:41.841Z,1.80
2017-11-04T06:57:41.718Z,1.60
2017-11-04T06:58:41.594Z,1.60
2017-11-04T06:59:41.469Z,1.90
2017-11-04T07:00:41.346Z,1.60
2017-11-04T07:01:41.222Z,1.90
2017-11-04T07:02:41.095Z,1.70
2017-11-04T07:03:40.974Z,1.80
2017-11-04T07:04:40.851Z,1.80
2017-11-04T07:05:40.728Z,1.70
2017-11-04T07:06:40.602Z,1.50
2017-11-04T07:07:40.482Z,1.80
2017-11-04T07:08:40.355Z,1.70
2017-11-04T07:09:40.230Z,1.80
2017-11-04T07:10:40.116Z,1.70
2017-11-04T07:11:39.983Z,1.70
2017-11-04T07:12:39.861Z,1.60
2017-11-04T07:13:39.739Z,1.80
2017-11-04T07:14:39.620Z,1.60
2017-11-04T07:15:39.490Z,1.60
2017-11-04T07:16:39.364Z,1.70
2017-11-04T07:17:39.251Z,1.90
2017-11-04T07:18:39.116Z,1.80
2017-11-04T07:19:38.992Z,1.60
2017-11-04T07:20:38.869Z,1.90
2017-11-04T07:21:38.745Z,1.60
2017-11-04T07:22:38.623Z,1.70
2017-11-04T07:23:38.499Z,1.60
2017-11-04T07:24:38.374Z,1.80
2017-11-04T07:25:38.254Z,1.70
2017-11-04T07:26:38.127Z,1.70
2017-11-04T07:27:38.005Z,1.80
2017-11-04T07:28:37.881Z,1.50
2017-11-04T07:29:37.758Z,1.50
2017-11-04T07:30:37.632Z,1.50
2017-11-04T07:31:37.510Z,1.70
2017-11-04T07:32:37.387Z,1.60
2017-11-04T07:33:37.268Z,1.70
2017-11-04T07:34:37.147Z,1.60
2017-11-04T07:35:37.018Z,1.40
2017-11-04T07:36:36.895Z,1.60
2017-11-04T07:37:36.771Z,1.50
2017-11-04T07:38:36.649Z,1.60
2017-11-04T07:39:36.526Z,1.80
2017-11-04T07:40:36.402Z,1.90
2017-11-04T07:41:36.279Z,2.60
2017-11-04T07:42:36.155Z,2.50
2017-11-04T07:43:36.033Z,1.80
2017-11-04T07:44:35.911Z,1.70
2017-11-04T07:45:35.792Z,1.80
2017-11-04T07:46:35.664Z,1.70
2017-11-04T07:47:35.540Z,1.60
2017-11-04T07:48:35.419Z,1.60
2017-11-04T07:49:35.296Z,1.50
2017-11-04T07:50:35.174Z,1.70
2017-11-04T07:51:35.049Z,1.60
2017-11-04T07:52:34.928Z,1.80
2017-11-04T07:53:34.806Z,1.90
2017-11-04T07:54:34.683Z,1.70
2017-11-04T07:55:34.561Z,1.60
2017-11-04T07:56:34.437Z,2.00
2017-11-04T07:57:34.320Z,1.60
2017-11-04T07:58:34.191Z,1.60
2017-11-04T07:59:34.072Z,1.60
2017-11-04T08:00:33.998Z,1.60
2017-11-04T08:01:33.827Z,1.70
2017-11-04T08:02:33.704Z,1.50
2017-11-04T08:03:33.579Z,1.60
2017-11-04T08:04:34.274Z,1.60
2017-11-04T08:05:33.404Z,1.40
2017-11-04T08:06:33.225Z,1.70
2017-11-04T08:07:33.111Z,1.50
2017-11-04T08:08:32.972Z,1.60
2017-11-04T13:48:59.464Z,7.00
2017-11-04T13:49:59.298Z,6.50
2017-11-04T13:51:51.974Z,4.90
2017-11-04T13:52:51.840Z,7.80
2017-11-04T13:53:51.724Z,8.20
2017-11-04T13:54:51.650Z,4.40
2017-11-04T13:55:51.483Z,5.60
2017-11-04T13:56:51.384Z,5.70
2017-11-04T13:57:51.238Z,4.10
2017-11-04T13:58:51.123Z,3.80
2017-11-04T13:59:51.000Z,3.70
2017-11-04T14:00:50.879Z,5.10
2017-11-04T14:01:50.759Z,5.90
2017-11-04T14:02:50.636Z,4.70
2017-11-04T14:03:50.516Z,4.40
2017-11-04T14:04:50.402Z,4.00
2017-11-04T14:05:50.277Z,4.90
2017-11-04T14:06:50.157Z,4.10
2017-11-04T14:07:50.037Z,4.20
2017-11-04T14:08:49.918Z,4.10
2017-11-04T14:09:49.798Z,4.00
2017-11-04T14:10:49.679Z,3.70
2017-11-04T14:11:49.567Z,4.00
2017-11-04T14:12:49.437Z,3.70
2017-11-04T14:13:49.326Z,4.60
2017-11-04T14:14:49.199Z,4.60
2017-11-04T14:15:49.075Z,4.00
2017-11-04T14:16:48.956Z,4.00
2017-11-04T14:17:48.842Z,4.00
2017-11-04T14:18:48.781Z,4.20
2017-11-04T14:19:48.685Z,4.00
2017-11-04T14:20:48.489Z,4.20
2017-11-04T14:21:48.371Z,3.70
2017-11-04T14:22:48.275Z,3.50
2017-11-04T14:23:48.276Z,3.80
2017-11-04T14:24:48.001Z,3.60
2017-11-04T14:25:47.896Z,3.80
2017-11-04T14:26:47.758Z,3.70
2017-11-04T14:27:47.635Z,3.40
2017-11-04T14:28:47.515Z,3.70
2017-11-04T14:29:47.395Z,3.70
2017-11-04T14:30:47.421Z,3.70
2017-11-04T14:31:47.211Z,3.50
2017-11-04T14:32:47.307Z,3.50
2017-11-04T14:33:46.915Z,3.80
2017-11-04T14:34:46.793Z,4.10
2017-11-04T14:35:46.677Z,4.10
2017-11-04T14:36:46.554Z,3.80
2017-11-04T14:37:46.434Z,3.70
2017-11-04T14:38:46.315Z,3.70
2017-11-04T14:39:46.192Z,3.70
2017-11-04T14:40:46.071Z,3.80
2017-11-04T14:41:45.957Z,3.90
2017-11-04T14:42:45.830Z,3.60
2017-11-04T14:43:45.711Z,3.50
2017-11-04T14:44:45.593Z,3.70
2017-11-04T14:45:45.469Z,3.50
2017-11-04T14:46:45.373Z,3.50
2017-11-04T14:47:45.270Z,3.50
2017-11-04T14:48:45.110Z,3.70
2017-11-04T14:49:45.094Z,3.90
2017-11-04T14:50:44.888Z,3.50
2017-11-04T14:51:44.788Z,3.20
2017-11-04T14:52:44.630Z,3.60
2017-11-04T14:53:44.508Z,3.50
2017-11-04T14:54:44.396Z,3.50
2017-11-04T14:55:44.269Z,3.40
2017-11-04T14:56:44.151Z,3.50
2017-11-04T14:57:44.093Z,3.00
2017-11-04T14:58:51.042Z,3.00
2017-11-04T15:00:36.611Z,3.60
2017-11-04T15:01:36.449Z,3.70
2017-11-04T15:02:36.336Z,3.40
2017-11-04T15:03:36.210Z,3.60
2017-11-04T15:04:36.091Z,3.30
2017-11-04T15:05:35.971Z,3.20
2017-11-04T15:06:35.851Z,3.50
2017-11-04T15:07:35.735Z,3.20
2017-11-04T15:08:35.609Z,3.30
2017-11-04T15:09:35.491Z,3.10
2017-11-04T15:10:35.380Z,3.20
2017-11-04T15:11:35.328Z,3.30
2017-11-04T15:12:35.331Z,3.10
2017-11-04T15:13:35.015Z,3.20
2017-11-04T15:14:34.926Z,3.30
2017-11-04T15:15:34.866Z,3.20
2017-11-04T15:16:34.732Z,3.90
2017-11-04T15:17:34.537Z,3.70
2017-11-04T15:18:34.422Z,3.60
2017-11-04T15:19:34.349Z,3.00
2017-11-04T15:20:34.228Z,3.40
2017-11-04T15:21:34.078Z,3.20
2017-11-04T15:22:33.935Z,3.70
2017-11-04T15:23:33.808Z,3.20
2017-11-04T15:24:33.729Z,3.40
2017-11-04T15:25:33.607Z,3.10
2017-11-04T15:26:33.448Z,3.30
2017-11-04T15:27:33.330Z,3.10
2017-11-04T15:28:33.292Z,3.10
2017-11-04T15:29:33.084Z,3.10
2017-11-04T15:30:32.964Z,3.30
2017-11-04T15:31:32.844Z,3.40
2017-11-04T15:32:32.723Z,3.40
2017-11-04T15:33:32.601Z,3.20
2017-11-04T15:34:32.483Z,3.00
2017-11-04T15:35:32.362Z,3.00
2017-11-04T15:36:32.240Z,3.10
2017-11-04T15:37:32.119Z,3.20
2017-11-04T15:38:31.998Z,3.30
2017-11-04T15:39:31.880Z,3.70
2017-11-04T15:40:31.759Z,3.20
2017-11-04T15:41:31.637Z,3.30
2017-11-04T15:42:31.521Z,2.90
2017-11-04T15:43:31.396Z,3.10
2017-11-04T15:44:31.274Z,3.00
2017-11-04T15:45:31.155Z,3.20
2017-11-04T15:46:31.032Z,3.30
2017-11-04T15:47:30.913Z,3.20
2017-11-04T15:48:30.799Z,2.90
2017-11-04T15:49:30.680Z,3.20
2017-11-04T15:50:30.551Z,3.00
2017-11-04T15:51:30.435Z,3.20
2017-11-04T15:52:30.311Z,3.10
2017-11-04T15:53:30.190Z,3.20
2017-11-04T15:54:30.068Z,3.40
2017-11-04T15:55:29.949Z,3.20
2017-11-04T15:57:29.708Z,3.00
2017-11-04T15:58:29.586Z,3.10
2017-11-04T15:59:29.464Z,3.10
2017-11-04T16:00:29.342Z,2.90
2017-11-04T16:01:29.223Z,3.20
2017-11-04T16:02:29.101Z,3.00
2017-11-04T16:03:36.136Z,3.00
2017-11-04T16:05:21.705Z,3.30
2017-11-04T16:06:21.536Z,3.30
2017-11-04T16:07:21.414Z,3.30
2017-11-04T16:08:21.294Z,3.10
2017-11-04T16:09:21.174Z,3.40
2017-11-04T16:10:21.050Z,3.10
2017-11-04T16:11:20.930Z,3.10
2017-11-04T16:12:20.812Z,3.20
2017-11-04T16:13:20.689Z,3.20
2017-11-04T16:14:20.566Z,3.00
2017-11-04T16:15:20.446Z,3.00
2017-11-04T16:16:20.325Z,2.90
2017-11-04T16:17:20.207Z,3.00
2017-11-04T16:18:20.082Z,3.30
2017-11-04T16:19:19.961Z,3.20
2017-11-04T16:20:19.843Z,3.20
2017-11-04T16:21:19.721Z,3.20
2017-11-04T16:22:19.597Z,3.20
2017-11-04T16:23:19.476Z,3.00
2017-11-04T16:24:19.357Z,3.20
2017-11-04T16:25:19.235Z,3.20
2017-11-04T16:26:19.112Z,3.30
2017-11-04T16:27:18.994Z,3.10
2017-11-04T16:28:18.872Z,3.10
2017-11-04T16:29:18.749Z,3.50
2017-11-04T16:30:18.626Z,3.20
2017-11-04T16:31:18.523Z,3.10
2017-11-04T16:32:18.387Z,3.10
2017-11-04T16:33:18.262Z,3.10
2017-11-04T16:34:18.143Z,2.90
2017-11-04T16:35:18.021Z,3.00
2017-11-04T16:36:17.901Z,3.00
2017-11-04T16:37:17.778Z,3.10
2017-11-04T16:38:17.655Z,3.10
2017-11-04T16:39:17.536Z,3.50
2017-11-04T16:40:17.478Z,3.40
2017-11-04T16:41:17.293Z,3.20
2017-11-04T16:42:17.172Z,2.90
2017-11-04T16:43:17.050Z,3.20
2017-11-04T16:44:16.933Z,3.00
2017-11-04T16:45:16.809Z,3.20
2017-11-04T16:46:19.289Z,3.30
2017-11-04T16:47:52.291Z,3.30
2017-11-04T16:48:23.367Z,3.30
2017-11-04T16:49:37.790Z,3.10
2017-11-04T16:50:16.201Z,3.00
2017-11-04T16:51:16.079Z,3.00
2017-11-04T16:52:15.959Z,3.20
2017-11-04T16:53:15.839Z,2.90
2017-11-04T16:54:15.718Z,3.00
2017-11-04T16:55:15.672Z,3.20
2017-11-04T16:56:15.635Z,3.40
2017-11-04T16:57:15.352Z,2.80
2017-11-04T16:58:15.228Z,3.10
2017-11-04T16:59:15.108Z,3.10
2017-11-04T17:00:14.989Z,3.30
2017-11-04T17:01:14.866Z,3.10
2017-11-04T17:02:14.754Z,3.10
2017-11-04T17:03:14.624Z,3.10
2017-11-04T17:04:14.646Z,3.20
2017-11-04T17:05:14.385Z,3.00
2017-11-04T17:06:14.259Z,3.30
2017-11-04T17:07:14.137Z,3.20
2017-11-04T17:08:14.022Z,2.90
2017-11-04T17:09:13.902Z,3.10
2017-11-04T17:10:13.775Z,3.10
2017-11-04T17:11:13.649Z,3.10
2017-11-04T17:12:13.540Z,3.10
2017-11-04T17:13:13.410Z,3.20
2017-11-04T17:14:13.397Z,3.10
2017-11-04T17:15:13.167Z,3.30
2017-11-04T17:16:13.052Z,3.50
2017-11-04T17:17:12.960Z,3.00
2017-11-04T17:18:12.802Z,3.20
2017-11-04T17:19:12.683Z,3.40
2017-11-04T17:20:12.559Z,3.20
2017-11-04T17:21:12.438Z,3.10
2017-11-04T17:22:12.317Z,3.10
2017-11-04T17:23:12.192Z,3.30
2017-11-04T17:24:12.073Z,3.40
2017-11-04T17:25:11.954Z,3.40
2017-11-04T17:26:11.830Z,3.30
2017-11-04T17:27:11.706Z,3.20
2017-11-04T17:28:11.595Z,3.50
2017-11-04T17:29:11.465Z,3.30
2017-11-04T17:30:11.342Z,3.00
2017-11-04T17:31:11.221Z,3.40
2017-11-04T17:32:11.101Z,3.10
2017-11-04T17:33:10.979Z,3.00
2017-11-04T17:34:10.854Z,3.30
2017-11-04T17:35:10.734Z,3.20
2017-11-04T17:36:10.614Z,3.20
2017-11-04T17:37:10.492Z,3.30
2017-11-04T17:38:10.370Z,3.40
2017-11-04T17:39:10.246Z,3.10
2017-11-04T17:40:10.126Z,3.00
2017-11-04T17:41:10.004Z,3.70
2017-11-04T17:42:09.882Z,3.10
2017-11-04T17:43:09.764Z,3.40
2017-11-04T17:44:09.643Z,3.00
2017-11-04T17:45:09.523Z,3.10
2017-11-04T17:46:09.396Z,3.00
2017-11-04T17:47:09.275Z,3.10
2017-11-04T17:48:09.155Z,3.20
2017-11-04T17:49:09.034Z,3.00
2017-11-04T17:50:08.908Z,3.20
2017-11-04T17:51:08.788Z,3.30
2017-11-04T17:52:08.665Z,3.10
2017-11-04T17:53:08.545Z,3.30
2017-11-04T17:54:08.424Z,3.20
2017-11-04T17:55:08.304Z,3.20
2017-11-04T17:56:08.186Z,3.30
2017-11-04T17:57:08.058Z,3.30
2017-11-04T17:58:07.940Z,3.30
2017-11-04T17:59:07.812Z,3.50
2017-11-04T18:00:07.692Z,3.10
2017-11-04T18:01:07.571Z,3.40
2017-11-04T18:02:07.449Z,2.80
2017-11-04T18:03:07.340Z,3.10
2017-11-04T18:04:07.205Z,3.50
2017-11-04T18:05:07.085Z,3.50
2017-11-04T18:06:06.962Z,3.20
2017-11-04T18:07:06.841Z,3.40
2017-11-04T18:08:06.717Z,3.10
2017-11-04T18:09:06.597Z,3.10
2017-11-04T18:10:06.475Z,3.40
2017-11-04T18:11:06.353Z,3.30
2017-11-04T18:12:06.232Z,3.30
2017-11-04T18:13:06.114Z,3.40
2017-11-04T18:14:05.986Z,3.10
2017-11-04T18:15:05.867Z,3.20
2017-11-04T18:16:05.744Z,3.30
2017-11-04T18:17:05.623Z,3.00
2017-11-04T18:18:05.501Z,3.40
2017-11-04T18:19:05.379Z,3.30
2017-11-04T18:20:05.258Z,3.40
2017-11-04T18:21:05.255Z,3.50
2017-11-04T18:22:05.016Z,3.30
2017-11-04T18:23:04.892Z,3.60
2017-11-04T18:24:04.770Z,3.40
2017-11-04T18:25:04.650Z,3.60
2017-11-04T18:26:04.525Z,3.70
2017-11-04T18:27:04.405Z,3.30
2017-11-04T18:28:04.284Z,3.40
2017-11-04T18:29:04.164Z,3.60
2017-11-04T18:30:04.045Z,3.40
2017-11-04T18:31:03.917Z,3.60
2017-11-04T18:32:03.794Z,3.90
2017-11-04T18:33:03.674Z,3.70
2017-11-04T18:34:03.558Z,4.00
2017-11-04T18:35:03.430Z,3.70
2017-11-04T18:36:03.308Z,3.10
2017-11-04T18:37:03.187Z,3.50
2017-11-04T18:38:03.062Z,3.40
2017-11-04T18:39:02.942Z,3.20
2017-11-04T18:40:02.819Z,3.40
2017-11-04T18:41:02.697Z,3.70
2017-11-04T18:42:02.578Z,3.70
2017-11-04T18:43:02.455Z,3.60
2017-11-04T18:44:02.340Z,3.70
2017-11-04T18:45:02.219Z,3.60
2017-11-04T18:46:02.100Z,3.40
2017-11-04T18:47:02.004Z,3.50
2017-11-04T18:48:01.845Z,3.10
2017-11-04T18:49:01.723Z,3.40
2017-11-04T18:50:01.600Z,3.60
2017-11-04T18:51:01.478Z,3.30
2017-11-04T18:52:01.357Z,3.10
2017-11-04T18:53:01.236Z,3.50
2017-11-04T18:54:01.112Z,3.20
2017-11-04T18:55:00.993Z,3.50
2017-11-04T18:56:00.871Z,3.30
2017-11-04T18:57:00.755Z,3.60
2017-11-04T18:58:00.625Z,3.30
2017-11-04T18:59:00.506Z,3.50
2017-11-04T19:00:00.384Z,3.60